createdAt,value
2023-02-11T00:01:33.169Z,38.90
2023-02-11T00:04:02.246Z,32.70
2023-02-11T00:06:31.949Z,34.10
2023-02-11T00:09:00.877Z,34.50
2023-02-11T00:11:30.705Z,38.30
2023-02-11T00:14:07.924Z,35.40
2023-02-11T00:16:36.377Z,30.70
2023-02-11T00:19:06.572Z,30.50
2023-02-11T00:21:35.604Z,31.60
2023-02-11T00:24:04.167Z,32.20
2023-02-11T00:26:35.443Z,30.40
2023-02-11T00:29:04.698Z,27.20
2023-02-11T00:31:33.753Z,32.40
2023-02-11T00:34:02.557Z,31.20
2023-02-11T00:36:31.305Z,28.00
2023-02-11T00:39:00.266Z,30.80
2023-02-11T00:41:28.956Z,34.70
2023-02-11T00:43:57.221Z,28.70
2023-02-11T00:46:25.587Z,31.40
2023-02-11T00:48:58.026Z,29.60
2023-02-11T00:51:28.367Z,30.20
2023-02-11T00:53:56.893Z,30.40
2023-02-11T00:56:25.844Z,29.70
2023-02-11T00:58:54.324Z,33.40
2023-02-11T01:01:22.993Z,29.10
2023-02-11T01:03:51.702Z,29.40
2023-02-11T01:06:19.900Z,33.70
2023-02-11T01:08:48.184Z,30.50
2023-02-11T01:11:19.621Z,30.20
2023-02-11T01:13:49.796Z,32.40
2023-02-11T01:16:19.703Z,30.90
2023-02-11T01:18:48.009Z,30.60
2023-02-11T01:21:16.781Z,32.30
2023-02-11T01:23:45.251Z,29.20
2023-02-11T01:26:14.102Z,31.00
2023-02-11T01:28:42.532Z,31.50
2023-02-11T01:31:11.155Z,34.20
2023-02-11T01:33:39.686Z,30.90
2023-02-11T01:36:09.026Z,32.30
2023-02-11T01:38:37.825Z,33.90
2023-02-11T01:41:09.915Z,34.60
2023-02-11T01:43:50.009Z,31.00
2023-02-11T01:48:55.612Z,32.80
2023-02-11T01:51:33.058Z,27.10
2023-02-11T01:54:21.808Z,32.20
2023-02-11T01:57:12.395Z,34.70
2023-02-11T01:59:52.354Z,32.90
2023-02-11T02:02:30.908Z,30.40
2023-02-11T02:05:29.132Z,31.30
2023-02-11T02:08:17.891Z,34.50
2023-02-11T02:10:48.566Z,31.80
2023-02-11T02:13:17.658Z,39.30
2023-02-11T02:16:01.700Z,33.60
2023-02-11T02:18:44.976Z,31.40
2023-02-11T02:21:43.818Z,34.20
2023-02-11T02:24:23.904Z,30.30
2023-02-11T02:29:38.844Z,37.60
2023-02-11T02:32:28.540Z,32.00
2023-02-11T02:35:26.035Z,34.00
2023-02-11T02:38:00.224Z,37.20
2023-02-11T02:40:37.237Z,32.80
2023-02-11T02:43:07.083Z,36.80
2023-02-11T02:45:35.359Z,37.30
2023-02-11T02:48:03.684Z,37.30
2023-02-11T02:50:35.705Z,36.60
2023-02-11T02:53:42.074Z,38.00
2023-02-11T02:56:15.176Z,36.70
2023-02-11T02:58:52.440Z,37.40
2023-02-11T03:01:27.143Z,37.70
2023-02-11T03:04:13.952Z,39.80
2023-02-11T03:07:09.368Z,38.00
2023-02-11T03:09:55.236Z,37.30
2023-02-11T03:12:25.098Z,36.30
2023-02-11T03:17:23.982Z,37.90
2023-02-11T03:19:52.407Z,40.00
2023-02-11T03:22:30.671Z,37.60
2023-02-11T03:25:00.844Z,39.40
2023-02-11T03:27:39.680Z,35.60
2023-02-11T03:30:16.900Z,37.60
2023-02-11T03:32:56.574Z,36.50
2023-02-11T03:35:33.469Z,39.60
2023-02-11T03:38:20.911Z,39.90
2023-02-11T03:40:51.538Z,40.90
2023-02-11T03:43:24.281Z,36.70
2023-02-11T03:45:55.569Z,38.30
2023-02-11T03:48:32.133Z,38.40
2023-02-11T03:51:03.166Z,41.10
2023-02-11T03:53:31.525Z,36.20
2023-02-11T03:56:03.482Z,37.40
2023-02-11T03:58:31.902Z,39.70
2023-02-11T04:01:02.708Z,38.40
2023-02-11T04:03:33.225Z,38.50
2023-02-11T04:06:01.541Z,36.20
2023-02-11T04:08:30.152Z,38.80
2023-02-11T04:10:58.529Z,36.90
2023-02-11T04:13:27.460Z,41.40
2023-02-11T04:15:55.691Z,45.20
2023-02-11T04:18:23.947Z,39.50
2023-02-11T04:20:52.243Z,35.80
2023-02-11T04:23:20.943Z,42.10
2023-02-11T04:25:51.751Z,40.00
2023-02-11T04:28:20.363Z,41.00
2023-02-11T04:30:51.226Z,42.10
2023-02-11T04:33:19.467Z,37.60
2023-02-11T04:35:48.128Z,40.30
2023-02-11T04:38:17.213Z,39.10
2023-02-11T04:40:45.484Z,39.80
2023-02-11T04:43:13.666Z,42.60
2023-02-11T04:45:42.068Z,41.30
2023-02-11T04:48:10.281Z,43.40
2023-02-11T04:50:38.526Z,44.10
2023-02-11T04:53:06.821Z,43.90
2023-02-11T04:55:35.177Z,40.90
2023-02-11T04:58:03.392Z,45.10
2023-02-11T05:00:31.683Z,40.10
2023-02-11T05:02:59.880Z,42.60
2023-02-11T05:05:28.380Z,44.00
2023-02-11T05:07:57.604Z,44.40
2023-02-11T05:10:25.828Z,40.60
2023-02-11T05:12:55.877Z,43.10
2023-02-11T05:15:24.572Z,39.00
2023-02-11T05:17:53.654Z,40.70
2023-02-11T05:20:22.113Z,43.60
2023-02-11T05:22:50.476Z,41.20
2023-02-11T05:25:19.023Z,42.70
2023-02-11T05:27:47.208Z,41.50
2023-02-11T05:30:15.538Z,42.40
2023-02-11T05:32:43.787Z,42.90
2023-02-11T05:35:12.119Z,40.10
2023-02-11T05:37:40.495Z,46.20
2023-02-11T05:40:09.363Z,48.70
2023-02-11T05:42:37.643Z,44.90
2023-02-11T05:45:06.372Z,47.00
2023-02-11T05:47:34.553Z,48.30
2023-02-11T05:50:02.825Z,43.90
2023-02-11T05:52:31.155Z,44.50
2023-02-11T05:54:59.326Z,47.40
2023-02-11T05:57:27.567Z,46.80
2023-02-11T05:59:55.774Z,48.80
2023-02-11T06:02:24.451Z,44.60
2023-02-11T06:04:52.903Z,47.70
2023-02-11T06:07:21.208Z,45.80
2023-02-11T06:09:49.491Z,46.70
2023-02-11T06:12:17.719Z,47.20
2023-02-11T06:14:45.961Z,46.50
2023-02-11T06:17:15.741Z,42.50
2023-02-11T06:22:12.323Z,49.70
2023-02-11T06:24:58.909Z,45.50
2023-02-11T06:27:29.230Z,50.20
2023-02-11T06:29:57.587Z,48.40
2023-02-11T06:32:43.254Z,50.20
2023-02-11T06:35:14.635Z,47.20
2023-02-11T06:37:43.334Z,50.20
2023-02-11T06:40:12.378Z,48.30
2023-02-11T06:42:40.735Z,52.60
2023-02-11T06:45:11.116Z,49.40
2023-02-11T06:47:43.239Z,53.80
2023-02-11T06:50:14.759Z,48.50
2023-02-11T06:52:43.154Z,48.30
2023-02-11T06:55:11.517Z,49.20
2023-02-11T06:57:39.751Z,50.70
2023-02-11T07:00:09.184Z,48.60
2023-02-11T07:02:37.721Z,47.80
2023-02-11T07:05:08.248Z,46.80
2023-02-11T07:07:37.469Z,50.20
2023-02-11T07:10:07.082Z,49.10
2023-02-11T07:12:35.554Z,49.70
2023-02-11T07:15:04.197Z,50.40
2023-02-11T07:17:34.320Z,52.90
2023-02-11T07:22:31.017Z,56.50
2023-02-11T07:24:59.297Z,54.50
2023-02-11T07:27:27.494Z,52.20
2023-02-11T07:29:55.693Z,56.70
2023-02-11T07:32:23.995Z,47.50
2023-02-11T07:34:52.319Z,51.90
2023-02-11T07:37:20.560Z,52.00
2023-02-11T07:39:48.899Z,51.40
2023-02-11T07:42:17.075Z,53.70
2023-02-11T07:44:49.248Z,53.90
2023-02-11T07:47:18.787Z,49.90
2023-02-11T07:49:47.876Z,48.20
2023-02-11T07:52:16.075Z,48.90
2023-02-11T07:54:44.399Z,44.40
2023-02-11T07:57:12.636Z,47.50
2023-02-11T07:59:40.818Z,44.40
2023-02-11T08:02:09.726Z,49.40
2023-02-11T08:04:38.431Z,47.00
2023-02-11T08:07:07.038Z,42.80
2023-02-11T08:09:35.483Z,42.10
2023-02-11T08:12:04.022Z,44.00
2023-02-11T08:14:33.009Z,41.70
2023-02-11T08:17:01.307Z,40.10
2023-02-11T08:19:29.606Z,40.00
2023-02-11T08:21:59.888Z,41.50
2023-02-11T08:24:28.289Z,40.00
2023-02-11T08:26:56.559Z,45.70
2023-02-11T08:29:24.747Z,39.50
2023-02-11T08:31:53.139Z,41.10
2023-02-11T08:34:22.293Z,40.90
2023-02-11T08:36:50.712Z,38.60
2023-02-11T08:39:21.737Z,42.00
2023-02-11T08:41:56.806Z,38.80
2023-02-11T08:44:26.531Z,40.80
2023-02-11T08:46:54.824Z,39.30
2023-02-11T08:49:23.367Z,39.80
2023-02-11T08:51:52.276Z,38.80
2023-02-11T08:54:20.466Z,39.80
2023-02-11T08:56:51.329Z,35.40
2023-02-11T08:59:19.626Z,36.30
2023-02-11T09:01:47.921Z,33.70
2023-02-11T09:04:16.309Z,35.60
2023-02-11T09:06:44.671Z,33.90
2023-02-11T09:09:15.100Z,31.00
2023-02-11T09:11:44.719Z,29.00
2023-02-11T09:14:22.124Z,29.30
2023-02-11T09:16:51.998Z,33.00
2023-02-11T09:19:21.488Z,31.70
2023-02-11T09:21:50.560Z,31.60
2023-02-11T09:24:19.641Z,29.40
2023-02-11T09:26:48.101Z,28.40
2023-02-11T09:29:16.408Z,28.00
2023-02-11T09:31:44.830Z,28.30
2023-02-11T09:34:13.461Z,26.30
2023-02-11T09:36:42.493Z,26.50
2023-02-11T09:39:17.278Z,29.90
2023-02-11T09:42:10.361Z,27.20
2023-02-11T09:44:39.820Z,28.60
2023-02-11T09:47:24.756Z,26.50
2023-02-11T09:50:22.000Z,28.30
2023-02-11T09:53:04.928Z,29.40
2023-02-11T09:55:43.384Z,28.60
2023-02-11T09:58:19.331Z,25.60
2023-02-11T10:00:55.132Z,27.20
2023-02-11T10:03:56.816Z,23.10
2023-02-11T10:06:28.129Z,21.30
2023-02-11T10:08:56.548Z,21.90
2023-02-11T10:11:41.944Z,19.10
2023-02-11T10:14:16.131Z,17.70
2023-02-11T10:17:04.683Z,18.50
2023-02-11T10:20:04.800Z,16.60
2023-02-11T10:25:36.665Z,15.40
2023-02-11T10:28:18.397Z,17.00
2023-02-11T10:30:56.694Z,14.70
2023-02-11T10:33:34.600Z,12.70
2023-02-11T10:36:05.133Z,13.30
2023-02-11T10:38:34.143Z,12.90
2023-02-11T10:41:02.393Z,14.20
2023-02-11T10:43:32.821Z,17.20
2023-02-11T10:46:05.069Z,14.10
2023-02-11T10:48:50.764Z,14.40
2023-02-11T10:51:37.891Z,14.20
2023-02-11T10:54:13.303Z,13.80
2023-02-11T10:56:59.054Z,15.20
2023-02-11T10:59:33.455Z,16.60
2023-02-11T11:02:21.301Z,17.40
2023-02-11T11:04:49.794Z,15.30
2023-02-11T11:07:22.904Z,12.70
2023-02-11T11:09:53.920Z,12.50
2023-02-11T11:12:31.180Z,13.80
2023-02-11T11:15:03.002Z,13.90
2023-02-11T11:17:31.371Z,14.50
2023-02-11T11:20:16.805Z,12.00
2023-02-11T11:22:45.751Z,12.90
2023-02-11T11:25:29.714Z,13.60
2023-02-11T11:28:00.893Z,14.00
2023-02-11T11:30:39.905Z,12.00
2023-02-11T11:33:23.016Z,15.80
2023-02-11T11:36:06.749Z,11.80
2023-02-11T11:38:37.799Z,12.20
2023-02-11T11:41:26.090Z,12.80
2023-02-11T11:44:04.400Z,12.90
2023-02-11T11:46:36.692Z,12.70
2023-02-11T11:49:12.833Z,9.40
2023-02-11T11:51:45.657Z,13.30
2023-02-11T11:54:17.927Z,12.90
2023-02-11T11:57:03.467Z,8.80
2023-02-11T11:59:32.758Z,12.30
2023-02-11T12:02:32.199Z,10.70
2023-02-11T12:05:19.106Z,10.90
2023-02-11T12:08:08.272Z,9.70
2023-02-11T12:10:45.849Z,9.20
2023-02-11T12:13:29.766Z,8.50
2023-02-11T12:16:10.433Z,9.00
2023-02-11T12:19:00.387Z,5.90
2023-02-11T12:24:33.670Z,9.30
2023-02-11T12:27:05.903Z,8.40
2023-02-11T12:29:53.556Z,10.00
2023-02-11T12:32:36.661Z,9.70
2023-02-11T12:35:26.866Z,11.20
2023-02-11T12:38:20.044Z,12.50
2023-02-11T12:41:45.537Z,10.10
2023-02-11T12:44:31.361Z,12.20
2023-02-11T12:47:08.498Z,9.40
2023-02-11T12:50:05.989Z,8.10
2023-02-11T12:52:52.463Z,5.20
2023-02-11T12:55:25.991Z,8.60
2023-02-11T12:57:59.565Z,13.40
2023-02-11T13:01:12.786Z,13.50
2023-02-11T13:03:47.479Z,12.20
2023-02-11T13:06:21.800Z,11.00
2023-02-11T13:08:56.217Z,12.90
2023-02-11T13:11:42.850Z,13.40
2023-02-11T13:14:26.048Z,8.20
2023-02-11T13:16:55.633Z,9.50
2023-02-11T13:19:48.782Z,8.50
2023-02-11T13:22:28.780Z,13.20
2023-02-11T13:27:58.723Z,26.00
2023-02-11T13:30:32.927Z,26.60
2023-02-11T13:33:01.245Z,13.00
2023-02-11T13:35:37.038Z,11.80
2023-02-11T13:38:30.219Z,15.10
2023-02-11T13:41:04.661Z,6.60
2023-02-11T13:43:35.350Z,12.00
2023-02-11T13:46:08.056Z,8.50
2023-02-11T13:48:46.739Z,11.50
2023-02-11T13:51:34.942Z,11.30
2023-02-11T13:54:05.621Z,11.80
2023-02-11T13:56:39.809Z,6.80
2023-02-11T13:59:44.554Z,10.30
2023-02-11T14:02:52.736Z,10.30
2023-02-11T14:05:43.050Z,12.00
2023-02-11T14:11:12.714Z,8.20
2023-02-11T14:13:53.144Z,8.70
2023-02-11T14:16:36.767Z,12.90
2023-02-11T14:19:06.836Z,10.30
2023-02-11T14:21:41.022Z,12.90
2023-02-11T14:24:13.272Z,14.40
2023-02-11T14:26:53.316Z,10.70
2023-02-11T14:29:24.766Z,11.00
2023-02-11T14:32:27.650Z,12.70
2023-02-11T14:35:15.486Z,17.40
2023-02-11T14:37:52.580Z,19.40
2023-02-11T14:40:34.875Z,12.90
2023-02-11T14:43:21.381Z,16.00
2023-02-11T14:45:56.927Z,15.10
2023-02-11T14:48:35.641Z,16.20
2023-02-11T14:51:10.772Z,12.90
2023-02-11T14:53:44.607Z,14.20
2023-02-11T14:56:26.627Z,14.20
2023-02-11T14:58:55.694Z,12.90
2023-02-11T15:01:34.189Z,32.60
2023-02-11T15:04:05.712Z,17.40
2023-02-11T15:06:40.887Z,9.30
2023-02-11T15:09:21.533Z,10.50
2023-02-11T15:11:51.374Z,11.70
2023-02-11T15:17:02.676Z,11.70
2023-02-11T15:19:41.821Z,8.20
2023-02-11T15:22:37.546Z,10.10
2023-02-11T15:25:17.353Z,16.90
2023-02-11T15:27:49.866Z,9.20
2023-02-11T15:30:25.149Z,7.20
2023-02-11T15:33:00.244Z,13.30
2023-02-11T15:35:35.325Z,13.10
2023-02-11T15:38:04.731Z,15.00
2023-02-11T15:40:36.378Z,17.70
2023-02-11T15:43:10.198Z,15.60
2023-02-11T15:45:53.609Z,14.20
2023-02-11T15:48:33.244Z,13.80
2023-02-11T15:51:20.880Z,16.70
2023-02-11T15:53:53.554Z,14.80
2023-02-11T15:56:30.880Z,16.10
2023-02-11T15:59:09.449Z,12.40
2023-02-11T16:01:39.896Z,13.00
2023-02-11T16:04:23.621Z,10.40
2023-02-11T16:06:54.448Z,13.90
2023-02-11T16:09:35.424Z,20.60
2023-02-11T16:12:23.061Z,15.20
2023-02-11T16:14:51.231Z,12.90
2023-02-11T16:17:19.473Z,13.30
2023-02-11T16:19:50.999Z,12.00
2023-02-11T16:22:24.597Z,12.30
2023-02-11T16:24:55.407Z,9.30
2023-02-11T16:27:41.864Z,11.80
2023-02-11T16:30:40.801Z,14.10
2023-02-11T16:33:11.952Z,18.90
2023-02-11T16:35:40.803Z,14.30
2023-02-11T16:38:08.993Z,11.30
2023-02-11T16:40:37.660Z,11.60
2023-02-11T16:43:06.340Z,15.20
2023-02-11T16:45:38.980Z,38.90
2023-02-11T16:48:09.649Z,71.60
2023-02-11T16:50:38.328Z,120.20
2023-02-11T16:53:06.926Z,40.70
2023-02-11T16:55:35.396Z,52.10
2023-02-11T16:58:03.767Z,39.30
2023-02-11T17:00:32.073Z,33.80
2023-02-11T17:03:00.724Z,22.40
2023-02-11T17:05:29.205Z,18.10
2023-02-11T17:07:57.682Z,20.00
2023-02-11T17:10:26.293Z,20.00
2023-02-11T17:12:54.569Z,19.80
2023-02-11T17:15:22.924Z,18.70
2023-02-11T17:17:52.001Z,14.60
2023-02-11T17:20:20.856Z,17.50
2023-02-11T17:22:50.409Z,17.00
2023-02-11T17:25:18.790Z,16.40
2023-02-11T17:27:47.069Z,17.10
2023-02-11T17:30:15.571Z,14.40
2023-02-11T17:32:43.900Z,15.40
2023-02-11T17:35:12.929Z,14.90
2023-02-11T17:37:41.096Z,12.50
2023-02-11T17:40:10.392Z,14.30
2023-02-11T17:42:38.860Z,10.50
2023-02-11T17:45:08.926Z,13.30
2023-02-11T17:50:05.889Z,12.60
2023-02-11T17:52:34.226Z,16.80
2023-02-11T17:55:02.443Z,15.30
2023-02-11T17:57:31.166Z,13.50
2023-02-11T17:59:59.435Z,10.60
2023-02-11T18:02:27.833Z,16.90
2023-02-11T18:04:57.894Z,13.10
2023-02-11T18:07:26.985Z,15.30
2023-02-11T18:09:55.238Z,16.10
2023-02-11T18:12:26.475Z,12.10
2023-02-11T18:14:57.556Z,14.00
2023-02-11T18:17:26.665Z,10.20
2023-02-11T18:19:58.319Z,12.70
2023-02-11T18:22:27.533Z,13.80
2023-02-11T18:24:55.855Z,15.00
2023-02-11T18:27:24.072Z,14.20
2023-02-11T18:29:52.443Z,14.40
2023-02-11T18:32:20.768Z,17.70
2023-02-11T18:34:49.071Z,17.10
2023-02-11T18:37:17.345Z,15.20
2023-02-11T18:39:45.630Z,11.40
2023-02-11T18:42:13.854Z,18.20
2023-02-11T18:44:42.300Z,14.60
2023-02-11T18:47:10.591Z,11.50
2023-02-11T18:49:38.857Z,12.30
2023-02-11T18:52:07.084Z,13.60
2023-02-11T18:54:35.430Z,10.60
2023-02-11T18:57:03.754Z,16.40
2023-02-11T18:59:32.005Z,10.80
2023-02-11T19:02:00.403Z,15.10
2023-02-11T19:04:28.687Z,11.40
2023-02-11T19:06:57.024Z,12.00
2023-02-11T19:09:25.341Z,18.60
2023-02-11T19:11:58.090Z,13.40
2023-02-11T19:14:32.375Z,16.10
2023-02-11T19:17:06.483Z,12.80
2023-02-11T19:19:36.551Z,18.60
2023-02-11T19:24:39.550Z,12.40
2023-02-11T19:27:07.728Z,11.20
2023-02-11T19:29:36.001Z,12.60
2023-02-11T19:32:06.374Z,19.40
2023-02-11T19:34:41.249Z,12.70
2023-02-11T19:37:12.956Z,12.30
2023-02-11T19:39:42.455Z,15.40
2023-02-11T19:42:11.613Z,17.50
2023-02-11T19:44:39.877Z,16.50
2023-02-11T19:47:10.482Z,11.30
2023-02-11T19:49:38.795Z,17.80
2023-02-11T19:52:07.039Z,12.80
2023-02-11T19:54:35.262Z,15.20
2023-02-11T19:57:03.665Z,16.40
2023-02-11T19:59:31.898Z,14.20
2023-02-11T20:02:01.668Z,15.10
2023-02-11T20:04:32.384Z,15.00
2023-02-11T20:07:00.727Z,14.00
2023-02-11T20:09:31.268Z,14.00
2023-02-11T20:11:59.867Z,17.80
2023-02-11T20:14:28.351Z,17.10
2023-02-11T20:16:56.614Z,15.20
2023-02-11T20:19:24.952Z,14.70
2023-02-11T20:21:56.022Z,17.20
2023-02-11T20:24:25.394Z,15.90
2023-02-11T20:26:57.878Z,13.80
2023-02-11T20:29:26.348Z,21.70
2023-02-11T20:31:55.038Z,17.30
2023-02-11T20:34:25.237Z,15.10
2023-02-11T20:36:54.350Z,18.70
2023-02-11T20:39:24.504Z,20.60
2023-02-11T20:41:54.146Z,17.80
2023-02-11T20:44:23.296Z,17.10
2023-02-11T20:46:54.077Z,13.10
2023-02-11T20:49:24.552Z,20.70
2023-02-11T20:51:54.324Z,19.50
2023-02-11T20:54:24.370Z,25.30
2023-02-11T20:56:54.170Z,22.50
2023-02-11T20:59:23.371Z,25.30
2023-02-11T21:01:55.563Z,24.70
2023-02-11T21:04:27.646Z,26.90
2023-02-11T21:06:58.698Z,23.00
2023-02-11T21:09:31.457Z,30.10
2023-02-11T21:12:00.713Z,27.40
2023-02-11T21:14:29.592Z,26.00
2023-02-11T21:16:58.191Z,29.60
2023-02-11T21:19:26.997Z,26.10
2023-02-11T21:21:57.456Z,22.90
2023-02-11T21:24:25.753Z,24.70
2023-02-11T21:26:55.547Z,22.00
2023-02-11T21:29:23.877Z,19.90
2023-02-11T21:31:52.201Z,18.50
2023-02-11T21:34:20.980Z,18.90
2023-02-11T21:36:51.407Z,24.10
2023-02-11T21:39:20.496Z,23.90
2023-02-11T21:41:49.099Z,22.10
2023-02-11T21:44:17.502Z,29.00
2023-02-11T21:46:45.817Z,25.70
2023-02-11T21:49:14.218Z,26.60
2023-02-11T21:51:42.967Z,27.50
2023-02-11T21:54:11.775Z,29.00
2023-02-11T21:56:40.843Z,23.90
2023-02-11T21:59:13.876Z,19.80
2023-02-11T22:01:42.097Z,19.80
2023-02-11T22:04:10.397Z,19.80
2023-02-11T22:06:38.968Z,23.80
2023-02-11T22:09:09.945Z,24.10
2023-02-11T22:11:38.350Z,19.50
2023-02-11T22:14:06.633Z,20.20
2023-02-11T22:16:35.047Z,22.00
2023-02-11T22:19:03.859Z,18.50
2023-02-11T22:21:32.089Z,18.20
2023-02-11T22:24:00.324Z,20.30
2023-02-11T22:26:29.064Z,16.90
2023-02-11T22:28:57.700Z,22.30
2023-02-11T22:31:29.924Z,22.80
2023-02-11T22:33:58.898Z,26.90
2023-02-11T22:36:33.947Z,19.20
2023-02-11T22:39:08.253Z,18.50
2023-02-11T22:41:40.935Z,15.30
2023-02-11T22:44:09.784Z,15.60
2023-02-11T22:46:38.834Z,17.70
2023-02-11T22:49:07.623Z,22.00
2023-02-11T22:51:36.132Z,21.70
2023-02-11T22:54:06.824Z,22.40
2023-02-11T22:56:35.428Z,20.60
2023-02-11T22:59:09.351Z,23.00
2023-02-11T23:01:37.917Z,19.50
2023-02-11T23:04:08.720Z,17.80
2023-02-11T23:06:36.968Z,17.60
2023-02-11T23:09:08.047Z,14.30
2023-02-11T23:11:36.793Z,17.40
2023-02-11T23:14:05.613Z,19.40
2023-02-11T23:16:34.916Z,18.90
2023-02-11T23:19:08.551Z,15.20
2023-02-11T23:21:39.293Z,13.20
2023-02-11T23:24:12.011Z,16.40
2023-02-11T23:26:42.448Z,13.50
2023-02-11T23:29:10.922Z,13.70
2023-02-11T23:31:41.029Z,12.40
2023-02-11T23:34:10.097Z,15.00
2023-02-11T23:36:38.650Z,16.00
2023-02-11T23:39:06.854Z,13.50
2023-02-11T23:41:35.134Z,20.90
2023-02-11T23:44:03.428Z,19.10
2023-02-11T23:46:31.809Z,15.80
2023-02-11T23:49:00.364Z,18.70
2023-02-11T23:51:28.773Z,19.00
2023-02-11T23:53:57.047Z,16.70
2023-02-11T23:56:28.405Z,14.90
2023-02-11T23:58:58.532Z,10.50
